sensor_id;sensor_type;location;lat;lon;timestamp;pressure;altitude;pressure_sealevel;temperature;humidity
40850;BME280;26571;41.610;25.380;2023-06-22T00:00:56;98562.56;;;20.97;87.47
40850;BME280;26571;41.610;25.380;2023-06-22T00:03:23;98563.25;;;20.92;87.68
40850;BME280;26571;41.610;25.380;2023-06-22T00:05:50;98560.72;;;20.97;87.09
40850;BME280;26571;41.610;25.380;2023-06-22T00:08:16;98571.66;;;20.96;87.56
40850;BME280;26571;41.610;25.380;2023-06-22T00:10:43;98570.59;;;20.97;87.95
40850;BME280;26571;41.610;25.380;2023-06-22T00:13:09;98563.25;;;20.92;88.26
40850;BME280;26571;41.610;25.380;2023-06-22T00:15:35;98573.53;;;20.95;88.27
40850;BME280;26571;41.610;25.380;2023-06-22T00:18:00;98566.28;;;20.84;87.92
40850;BME280;26571;41.610;25.380;2023-06-22T00:20:27;98578.41;;;20.98;87.73
40850;BME280;26571;41.610;25.380;2023-06-22T00:22:54;98588.97;;;20.93;88.22
40850;BME280;26571;41.610;25.380;2023-06-22T00:25:20;98581.06;;;20.86;89.01
40850;BME280;26571;41.610;25.380;2023-06-22T00:27:45;98587.47;;;20.85;89.23
40850;BME280;26571;41.610;25.380;2023-06-22T00:30:11;98593.25;;;20.82;89.45
40850;BME280;26571;41.610;25.380;2023-06-22T00:32:36;98588.31;;;20.68;90.14
40850;BME280;26571;41.610;25.380;2023-06-22T00:35:02;98594.03;;;20.71;90.06
40850;BME280;26571;41.610;25.380;2023-06-22T00:37:27;98587.00;;;20.58;90.80
40850;BME280;26571;41.610;25.380;2023-06-22T00:39:55;98591.78;;;20.56;91.06
40850;BME280;26571;41.610;25.380;2023-06-22T00:42:20;98572.47;;;20.36;91.92
40850;BME280;26571;41.610;25.380;2023-06-22T00:44:46;98595.19;;;20.45;92.43
40850;BME280;26571;41.610;25.380;2023-06-22T00:47:13;98588.22;;;20.44;92.77
40850;BME280;26571;41.610;25.380;2023-06-22T00:49:39;98577.16;;;20.40;92.95
40850;BME280;26571;41.610;25.380;2023-06-22T00:52:06;98582.00;;;20.32;93.41
40850;BME280;26571;41.610;25.380;2023-06-22T00:54:40;98591.34;;;20.23;94.84
40850;BME280;26571;41.610;25.380;2023-06-22T00:57:05;98586.00;;;20.23;94.77
40850;BME280;26571;41.610;25.380;2023-06-22T00:59:31;98577.19;;;20.22;94.61
40850;BME280;26571;41.610;25.380;2023-06-22T01:01:57;98585.56;;;20.26;95.15
40850;BME280;26571;41.610;25.380;2023-06-22T01:04:24;98587.81;;;20.29;94.75
40850;BME280;26571;41.610;25.380;2023-06-22T01:07:13;98583.94;;;20.25;94.67
40850;BME280;26571;41.610;25.380;2023-06-22T01:09:48;98578.66;;;20.18;94.50
40850;BME280;26571;41.610;25.380;2023-06-22T01:12:15;98595.06;;;20.22;94.48
40850;BME280;26571;41.610;25.380;2023-06-22T01:14:47;98590.16;;;20.19;94.40
40850;BME280;26571;41.610;25.380;2023-06-22T01:17:19;98591.69;;;20.14;93.95
40850;BME280;26571;41.610;25.380;2023-06-22T01:19:54;98593.91;;;19.99;94.17
40850;BME280;26571;41.610;25.380;2023-06-22T01:22:23;98591.06;;;20.12;93.92
40850;BME280;26571;41.610;25.380;2023-06-22T01:30:16;98587.81;;;20.10;92.93
40850;BME280;26571;41.610;25.380;2023-06-22T01:32:43;98589.81;;;20.15;92.49
40850;BME280;26571;41.610;25.380;2023-06-22T01:35:10;98595.97;;;20.16;92.07
40850;BME280;26571;41.610;25.380;2023-06-22T01:37:37;98581.41;;;20.11;91.87
40850;BME280;26571;41.610;25.380;2023-06-22T01:40:04;98593.69;;;20.19;91.91
40850;BME280;26571;41.610;25.380;2023-06-22T01:42:31;98587.97;;;20.16;91.74
40850;BME280;26571;41.610;25.380;2023-06-22T01:44:58;98594.06;;;20.04;93.10
40850;BME280;26571;41.610;25.380;2023-06-22T01:47:24;98584.09;;;19.93;93.65
40850;BME280;26571;41.610;25.380;2023-06-22T01:49:51;98589.22;;;19.95;93.54
40850;BME280;26571;41.610;25.380;2023-06-22T01:52:17;98592.09;;;19.93;94.20
40850;BME280;26571;41.610;25.380;2023-06-22T01:54:43;98596.28;;;19.89;94.76
40850;BME280;26571;41.610;25.380;2023-06-22T01:57:09;98586.03;;;19.86;94.95
40850;BME280;26571;41.610;25.380;2023-06-22T01:59:42;98542.78;;;19.52;95.44
40850;BME280;26571;41.610;25.380;2023-06-22T02:02:15;98593.91;;;19.81;95.63
40850;BME280;26571;41.610;25.380;2023-06-22T02:07:20;98603.50;;;19.63;97.09
40850;BME280;26571;41.610;25.380;2023-06-22T02:09:50;98591.91;;;19.51;98.77
40850;BME280;26571;41.610;25.380;2023-06-22T02:12:23;98593.06;;;19.62;98.31
40850;BME280;26571;41.610;25.380;2023-06-22T02:14:51;98596.53;;;19.62;98.06
40850;BME280;26571;41.610;25.380;2023-06-22T02:17:18;98587.59;;;19.50;97.83
40850;BME280;26571;41.610;25.380;2023-06-22T02:19:43;98605.19;;;19.58;98.41
40850;BME280;26571;41.610;25.380;2023-06-22T02:22:09;98609.72;;;19.57;98.78
40850;BME280;26571;41.610;25.380;2023-06-22T02:24:35;98614.22;;;19.57;98.51
40850;BME280;26571;41.610;25.380;2023-06-22T02:27:01;98623.94;;;19.51;99.10
40850;BME280;26571;41.610;25.380;2023-06-22T02:29:28;98612.69;;;19.49;99.47
40850;BME280;26571;41.610;25.380;2023-06-22T02:31:54;98620.69;;;19.49;99.32
40850;BME280;26571;41.610;25.380;2023-06-22T02:34:21;98623.72;;;19.53;98.56
40850;BME280;26571;41.610;25.380;2023-06-22T02:36:47;98612.72;;;19.43;98.24
40850;BME280;26571;41.610;25.380;2023-06-22T02:41:42;98628.69;;;19.49;97.33
40850;BME280;26571;41.610;25.380;2023-06-22T02:44:08;98632.38;;;19.48;97.73
40850;BME280;26571;41.610;25.380;2023-06-22T02:46:33;98633.03;;;19.44;98.55
40850;BME280;26571;41.610;25.380;2023-06-22T02:48:59;98623.53;;;19.29;98.84
40850;BME280;26571;41.610;25.380;2023-06-22T02:51:24;98649.28;;;19.42;98.12
40850;BME280;26571;41.610;25.380;2023-06-22T02:53:49;98608.41;;;19.17;97.90
40850;BME280;26571;41.610;25.380;2023-06-22T02:56:18;98646.19;;;19.45;97.85
40850;BME280;26571;41.610;25.380;2023-06-22T02:58:49;98641.28;;;19.42;98.25
40850;BME280;26571;41.610;25.380;2023-06-22T03:01:15;98650.06;;;19.49;98.52
40850;BME280;26571;41.610;25.380;2023-06-22T03:03:40;98638.75;;;19.47;97.98
40850;BME280;26571;41.610;25.380;2023-06-22T03:06:06;98652.22;;;19.59;97.75
40850;BME280;26571;41.610;25.380;2023-06-22T03:08:31;98649.97;;;19.62;97.08
40850;BME280;26571;41.610;25.380;2023-06-22T03:10:57;98658.59;;;19.65;96.66
40850;BME280;26571;41.610;25.380;2023-06-22T03:13:22;98638.75;;;19.47;97.81
40850;BME280;26571;41.610;25.380;2023-06-22T03:15:48;98655.91;;;19.58;98.38
40850;BME280;26571;41.610;25.380;2023-06-22T03:18:13;98651.81;;;19.62;98.29
40850;BME280;26571;41.610;25.380;2023-06-22T03:20:40;98643.84;;;19.55;97.40
40850;BME280;26571;41.610;25.380;2023-06-22T03:23:06;98665.16;;;19.62;98.09
40850;BME280;26571;41.610;25.380;2023-06-22T03:25:31;98660.22;;;19.66;98.39
40850;BME280;26571;41.610;25.380;2023-06-22T03:27:56;98629.72;;;19.48;98.25
40850;BME280;26571;41.610;25.380;2023-06-22T03:30:22;98644.00;;;19.85;98.84
40850;BME280;26571;41.610;25.380;2023-06-22T03:32:47;98650.84;;;20.36;94.67
40850;BME280;26571;41.610;25.380;2023-06-22T03:35:12;98647.81;;;20.81;91.95
40850;BME280;26571;41.610;25.380;2023-06-22T03:37:39;98661.19;;;21.53;87.04
40850;BME280;26571;41.610;25.380;2023-06-22T03:40:05;98663.41;;;22.15;83.23
40850;BME280;26571;41.610;25.380;2023-06-22T03:42:31;98668.88;;;22.72;78.62
40850;BME280;26571;41.610;25.380;2023-06-22T03:44:56;98664.22;;;23.25;75.53
40850;BME280;26571;41.610;25.380;2023-06-22T03:47:22;98673.63;;;23.72;71.08
40850;BME280;26571;41.610;25.380;2023-06-22T03:49:48;98638.94;;;24.10;68.31
40850;BME280;26571;41.610;25.380;2023-06-22T03:52:13;98675.50;;;24.28;66.53
40850;BME280;26571;41.610;25.380;2023-06-22T03:54:39;98656.22;;;24.36;66.21
40850;BME280;26571;41.610;25.380;2023-06-22T03:57:04;98665.97;;;24.86;64.31
40850;BME280;26571;41.610;25.380;2023-06-22T03:59:31;98677.91;;;25.49;62.66
40850;BME280;26571;41.610;25.380;2023-06-22T04:01:57;98662.66;;;25.97;59.64
40850;BME280;26571;41.610;25.380;2023-06-22T04:04:23;98654.28;;;26.46;57.81
40850;BME280;26571;41.610;25.380;2023-06-22T04:06:48;98662.56;;;27.07;55.09
40850;BME280;26571;41.610;25.380;2023-06-22T04:09:13;98663.16;;;27.60;53.28
40850;BME280;26571;41.610;25.380;2023-06-22T04:11:39;98642.81;;;27.98;51.60
40850;BME280;26571;41.610;25.380;2023-06-22T04:14:04;98655.97;;;28.41;50.20
40850;BME280;26571;41.610;25.380;2023-06-22T04:16:29;98666.69;;;28.66;49.38
40850;BME280;26571;41.610;25.380;2023-06-22T04:18:55;98660.69;;;28.69;48.72
40850;BME280;26571;41.610;25.380;2023-06-22T04:21:20;98657.47;;;28.67;49.19
40850;BME280;26571;41.610;25.380;2023-06-22T04:23:46;98651.25;;;28.67;49.31
40850;BME280;26571;41.610;25.380;2023-06-22T04:26:13;98662.41;;;28.60;49.41
40850;BME280;26571;41.610;25.380;2023-06-22T04:28:39;98652.59;;;28.64;49.53
40850;BME280;26571;41.610;25.380;2023-06-22T04:31:05;98638.09;;;28.45;49.40
40850;BME280;26571;41.610;25.380;2023-06-22T04:33:30;98648.31;;;28.58;49.65
40850;BME280;26571;41.610;25.380;2023-06-22T04:35:57;98660.50;;;28.61;49.84
40850;BME280;26571;41.610;25.380;2023-06-22T04:38:23;98661.91;;;28.48;50.46
40850;BME280;26571;41.610;25.380;2023-06-22T04:40:49;98659.78;;;28.24;51.28
40850;BME280;26571;41.610;25.380;2023-06-22T04:43:14;98673.94;;;28.01;51.86
40850;BME280;26571;41.610;25.380;2023-06-22T04:45:40;98671.78;;;27.88;53.10
40850;BME280;26571;41.610;25.380;2023-06-22T04:48:05;98665.84;;;27.50;54.16
40850;BME280;26571;41.610;25.380;2023-06-22T04:50:31;98669.06;;;27.11;55.29
40850;BME280;26571;41.610;25.380;2023-06-22T04:52:56;98667.94;;;26.97;56.43
40850;BME280;26571;41.610;25.380;2023-06-22T04:55:22;98674.91;;;26.72;57.65
40850;BME280;26571;41.610;25.380;2023-06-22T04:57:48;98682.16;;;26.62;58.01
40850;BME280;26571;41.610;25.380;2023-06-22T05:00:17;98680.66;;;26.39;59.28
40850;BME280;26571;41.610;25.380;2023-06-22T05:02:44;98675.72;;;26.20;60.10
40850;BME280;26571;41.610;25.380;2023-06-22T05:05:10;98692.88;;;25.99;62.29
40850;BME280;26571;41.610;25.380;2023-06-22T05:07:38;98692.94;;;25.72;63.08
40850;BME280;26571;41.610;25.380;2023-06-22T05:10:05;98671.81;;;25.64;63.48
40850;BME280;26571;41.610;25.380;2023-06-22T05:12:30;98653.25;;;25.35;63.12
40850;BME280;26571;41.610;25.380;2023-06-22T05:14:56;98670.78;;;25.33;64.84
40850;BME280;26571;41.610;25.380;2023-06-22T05:17:22;98681.72;;;24.99;66.64
40850;BME280;26571;41.610;25.380;2023-06-22T05:19:47;98673.59;;;24.67;68.39
40850;BME280;26571;41.610;25.380;2023-06-22T05:22:17;98677.28;;;24.39;69.72
40850;BME280;26571;41.610;25.380;2023-06-22T05:24:42;98669.91;;;24.34;71.17
40850;BME280;26571;41.610;25.380;2023-06-22T05:27:08;98653.78;;;24.34;71.47
40850;BME280;26571;41.610;25.380;2023-06-22T05:29:34;98667.31;;;24.61;70.60
40850;BME280;26571;41.610;25.380;2023-06-22T05:32:00;98675.84;;;25.02;69.73
40850;BME280;26571;41.610;25.380;2023-06-22T05:34:26;98682.06;;;25.30;68.10
40850;BME280;26571;41.610;25.380;2023-06-22T05:36:51;98682.72;;;25.42;66.75
40850;BME280;26571;41.610;25.380;2023-06-22T05:39:17;98657.31;;;25.33;66.18
40850;BME280;26571;41.610;25.380;2023-06-22T05:41:44;98671.81;;;25.64;64.53
40850;BME280;26571;41.610;25.380;2023-06-22T05:44:09;98654.84;;;25.63;64.82
40850;BME280;26571;41.610;25.380;2023-06-22T05:46:35;98662.13;;;26.05;64.39
40850;BME280;26571;41.610;25.380;2023-06-22T05:49:00;98662.56;;;26.34;62.92
40850;BME280;26571;41.610;25.380;2023-06-22T05:51:25;98657.06;;;26.66;60.01
40850;BME280;26571;41.610;25.380;2023-06-22T05:53:51;98659.81;;;26.82;58.54
40850;BME280;26571;41.610;25.380;2023-06-22T05:56:17;98657.09;;;26.87;57.87
40850;BME280;26571;41.610;25.380;2023-06-22T05:58:42;98661.72;;;27.01;56.35
40850;BME280;26571;41.610;25.380;2023-06-22T06:01:07;98665.56;;;27.11;57.24
40850;BME280;26571;41.610;25.380;2023-06-22T06:03:33;98621.44;;;27.05;58.11
40850;BME280;26571;41.610;25.380;2023-06-22T06:05:58;98666.13;;;27.43;57.52
40850;BME280;26571;41.610;25.380;2023-06-22T06:08:24;98660.97;;;27.57;57.19
40850;BME280;26571;41.610;25.380;2023-06-22T06:10:49;98660.44;;;27.65;56.93
40850;BME280;26571;41.610;25.380;2023-06-22T06:13:15;98662.31;;;27.65;54.67
40850;BME280;26571;41.610;25.380;2023-06-22T06:15:40;98635.28;;;27.44;55.73
40850;BME280;26571;41.610;25.380;2023-06-22T06:18:06;98662.88;;;27.72;54.77
40850;BME280;26571;41.610;25.380;2023-06-22T06:20:32;98650.69;;;27.54;54.98
40850;BME280;26571;41.610;25.380;2023-06-22T06:22:58;98649.06;;;27.53;55.49
40850;BME280;26571;41.610;25.380;2023-06-22T06:25:23;98639.34;;;27.26;55.49
40850;BME280;26571;41.610;25.380;2023-06-22T06:27:50;98645.84;;;27.51;55.19
40850;BME280;26571;41.610;25.380;2023-06-22T06:30:18;98644.22;;;27.70;54.33
40850;BME280;26571;41.610;25.380;2023-06-22T06:32:44;98613.38;;;27.61;54.24
40850;BME280;26571;41.610;25.380;2023-06-22T06:35:11;98596.63;;;27.44;54.07
40850;BME280;26571;41.610;25.380;2023-06-22T06:37:41;98629.88;;;27.85;53.00
40850;BME280;26571;41.610;25.380;2023-06-22T06:40:08;98646.28;;;28.14;55.24
40850;BME280;26571;41.610;25.380;2023-06-22T06:42:41;98642.94;;;28.48;54.73
40850;BME280;26571;41.610;25.380;2023-06-22T06:45:10;98641.16;;;28.77;54.92
40850;BME280;26571;41.610;25.380;2023-06-22T06:47:36;98648.09;;;28.94;52.23
40850;BME280;26571;41.610;25.380;2023-06-22T06:50:03;98643.84;;;28.82;52.08
40850;BME280;26571;41.610;25.380;2023-06-22T06:52:29;98616.41;;;28.89;51.96
40850;BME280;26571;41.610;25.380;2023-06-22T06:54:54;98638.97;;;29.24;51.12
40850;BME280;26571;41.610;25.380;2023-06-22T06:57:20;98611.84;;;29.24;50.04
40850;BME280;26571;41.610;25.380;2023-06-22T06:59:45;98634.72;;;29.47;50.31
40850;BME280;26571;41.610;25.380;2023-06-22T07:02:11;98642.25;;;29.60;48.92
40850;BME280;26571;41.610;25.380;2023-06-22T07:04:36;98628.75;;;29.79;49.75
40850;BME280;26571;41.610;25.380;2023-06-22T07:07:02;98619.84;;;29.73;51.12
40850;BME280;26571;41.610;25.380;2023-06-22T07:09:28;98617.22;;;29.92;52.17
40850;BME280;26571;41.610;25.380;2023-06-22T07:11:54;98626.50;;;30.15;51.28
40850;BME280;26571;41.610;25.380;2023-06-22T07:14:19;98597.16;;;30.12;52.11
40850;BME280;26571;41.610;25.380;2023-06-22T07:16:44;98595.25;;;30.36;52.19
40850;BME280;26571;41.610;25.380;2023-06-22T07:19:13;98608.63;;;30.52;51.29
40850;BME280;26571;41.610;25.380;2023-06-22T07:21:38;98626.81;;;30.75;50.25
40850;BME280;26571;41.610;25.380;2023-06-22T07:24:07;98599.16;;;30.73;46.69
40850;BME280;26571;41.610;25.380;2023-06-22T07:26:32;98612.13;;;30.95;47.40
40850;BME280;26571;41.610;25.380;2023-06-22T07:28:58;98627.69;;;31.08;47.10
40850;BME280;26571;41.610;25.380;2023-06-22T07:31:26;98634.38;;;31.16;44.33
40850;BME280;26571;41.610;25.380;2023-06-22T07:33:52;98634.38;;;31.16;44.68
40850;BME280;26571;41.610;25.380;2023-06-22T07:36:18;98628.34;;;31.19;45.98
40850;BME280;26571;41.610;25.380;2023-06-22T07:38:43;98633.66;;;31.29;43.61
40850;BME280;26571;41.610;25.380;2023-06-22T07:41:09;98613.28;;;31.27;43.63
40850;BME280;26571;41.610;25.380;2023-06-22T07:43:34;98617.66;;;31.42;43.27
40850;BME280;26571;41.610;25.380;2023-06-22T07:46:03;98636.16;;;31.72;45.01
40850;BME280;26571;41.610;25.380;2023-06-22T07:48:28;98637.53;;;31.88;46.64
40850;BME280;26571;41.610;25.380;2023-06-22T07:50:54;98639.06;;;31.95;44.46
40850;BME280;26571;41.610;25.380;2023-06-22T07:53:20;98612.63;;;31.95;45.85
40850;BME280;26571;41.610;25.380;2023-06-22T07:55:46;98638.25;;;32.08;45.26
40850;BME280;26571;41.610;25.380;2023-06-22T07:58:11;98626.94;;;32.01;44.92
40850;BME280;26571;41.610;25.380;2023-06-22T08:00:37;98634.44;;;32.23;43.95
40850;BME280;26571;41.610;25.380;2023-06-22T08:03:02;98629.25;;;32.07;42.58
40850;BME280;26571;41.610;25.380;2023-06-22T08:05:30;98616.84;;;31.87;43.17
40850;BME280;26571;41.610;25.380;2023-06-22T08:07:56;98593.31;;;31.64;44.04
40850;BME280;26571;41.610;25.380;2023-06-22T08:10:21;98633.19;;;31.87;42.99
40850;BME280;26571;41.610;25.380;2023-06-22T08:12:47;98632.69;;;31.85;44.97
40850;BME280;26571;41.610;25.380;2023-06-22T08:15:12;98636.34;;;31.95;44.66
40850;BME280;26571;41.610;25.380;2023-06-22T08:17:38;98632.81;;;32.08;46.40
40850;BME280;26571;41.610;25.380;2023-06-22T08:20:04;98625.72;;;32.21;42.66
40850;BME280;26571;41.610;25.380;2023-06-22T08:22:37;98628.16;;;32.22;42.01
40850;BME280;26571;41.610;25.380;2023-06-22T08:25:03;98622.69;;;32.22;44.53
40850;BME280;26571;41.610;25.380;2023-06-22T08:27:30;98614.31;;;32.32;44.04
40850;BME280;26571;41.610;25.380;2023-06-22T08:29:57;98608.59;;;32.20;42.64
40850;BME280;26571;41.610;25.380;2023-06-22T08:32:27;98620.81;;;32.23;42.71
40850;BME280;26571;41.610;25.380;2023-06-22T08:34:54;98603.72;;;32.17;43.63
40850;BME280;26571;41.610;25.380;2023-06-22T08:37:20;98616.88;;;32.15;42.95
40850;BME280;26571;41.610;25.380;2023-06-22T08:39:46;98603.56;;;32.13;42.67
40850;BME280;26571;41.610;25.380;2023-06-22T08:42:12;98618.47;;;32.02;44.51
40850;BME280;26571;41.610;25.380;2023-06-22T08:44:37;98610.59;;;32.01;43.97
40850;BME280;26571;41.610;25.380;2023-06-22T08:47:03;98608.78;;;32.10;44.07
40850;BME280;26571;41.610;25.380;2023-06-22T08:49:28;98616.06;;;32.14;44.42
40850;BME280;26571;41.610;25.380;2023-06-22T08:51:54;98533.72;;;31.49;46.81
40850;BME280;26571;41.610;25.380;2023-06-22T08:54:22;98601.53;;;32.19;44.28
40850;BME280;26571;41.610;25.380;2023-06-22T08:56:47;98607.19;;;32.09;45.18
40850;BME280;26571;41.610;25.380;2023-06-22T08:59:12;98599.00;;;31.81;45.44
40850;BME280;26571;41.610;25.380;2023-06-22T09:01:38;98588.97;;;31.49;45.10
40850;BME280;26571;41.610;25.380;2023-06-22T09:04:04;98602.84;;;31.48;46.30
40850;BME280;26571;41.610;25.380;2023-06-22T09:06:31;98606.63;;;31.65;47.14
40850;BME280;26571;41.610;25.380;2023-06-22T09:08:57;98601.72;;;31.81;48.45
40850;BME280;26571;41.610;25.380;2023-06-22T09:11:25;98594.44;;;31.63;45.59
40850;BME280;26571;41.610;25.380;2023-06-22T09:13:50;98598.22;;;31.48;46.59
40850;BME280;26571;41.610;25.380;2023-06-22T09:16:17;98608.28;;;31.48;47.38
40850;BME280;26571;41.610;25.380;2023-06-22T09:18:42;98609.97;;;31.30;46.38
40850;BME280;26571;41.610;25.380;2023-06-22T09:21:08;98610.69;;;31.35;48.61
40850;BME280;26571;41.610;25.380;2023-06-22T09:23:33;98598.88;;;31.26;45.59
40850;BME280;26571;41.610;25.380;2023-06-22T09:25:59;98524.66;;;30.74;46.07
40850;BME280;26571;41.610;25.380;2023-06-22T09:28:24;98605.25;;;31.35;47.43
40850;BME280;26571;41.610;25.380;2023-06-22T09:30:50;98600.31;;;31.37;45.77
40850;BME280;26571;41.610;25.380;2023-06-22T09:33:16;98595.78;;;31.33;46.15
40850;BME280;26571;41.610;25.380;2023-06-22T09:35:41;98573.00;;;31.10;44.77
40850;BME280;26571;41.610;25.380;2023-06-22T09:38:07;98557.47;;;30.78;46.34
40850;BME280;26571;41.610;25.380;2023-06-22T09:40:32;98594.84;;;31.05;45.94
40850;BME280;26571;41.610;25.380;2023-06-22T09:43:05;98565.06;;;31.13;48.96
40850;BME280;26571;41.610;25.380;2023-06-22T09:45:30;98595.59;;;31.43;45.53
40850;BME280;26571;41.610;25.380;2023-06-22T09:47:56;98595.16;;;31.36;43.56
40850;BME280;26571;41.610;25.380;2023-06-22T09:50:21;98594.00;;;31.56;46.84
40850;BME280;26571;41.610;25.380;2023-06-22T09:52:46;98578.69;;;31.60;43.72
40850;BME280;26571;41.610;25.380;2023-06-22T09:55:16;98574.44;;;31.67;40.45
40850;BME280;26571;41.610;25.380;2023-06-22T09:57:41;98585.66;;;31.80;40.63
40850;BME280;26571;41.610;25.380;2023-06-22T10:00:07;98595.69;;;31.84;41.69
40850;BME280;26571;41.610;25.380;2023-06-22T10:02:38;98600.13;;;31.94;40.09
40850;BME280;26571;41.610;25.380;2023-06-22T10:05:04;98591.84;;;31.99;42.24
40850;BME280;26571;41.610;25.380;2023-06-22T10:07:29;98580.06;;;32.04;38.88
40850;BME280;26571;41.610;25.380;2023-06-22T10:09:54;98592.97;;;31.98;39.15
40850;BME280;26571;41.610;25.380;2023-06-22T10:12:20;98590.63;;;32.05;39.08
40850;BME280;26571;41.610;25.380;2023-06-22T10:14:45;98543.22;;;31.65;40.34
40850;BME280;26571;41.610;25.380;2023-06-22T10:17:11;98586.06;;;31.73;40.10
40850;BME280;26571;41.610;25.380;2023-06-22T10:19:36;98577.28;;;31.49;40.96
40850;BME280;26571;41.610;25.380;2023-06-22T10:22:04;98575.22;;;31.40;40.09
40850;BME280;26571;41.610;25.380;2023-06-22T10:24:29;98571.19;;;31.38;41.20
40850;BME280;26571;41.610;25.380;2023-06-22T10:26:54;98562.31;;;31.32;42.60
40850;BME280;26571;41.610;25.380;2023-06-22T10:29:20;98592.53;;;31.31;41.65
40850;BME280;26571;41.610;25.380;2023-06-22T10:31:46;98578.94;;;31.12;42.83
40850;BME280;26571;41.610;25.380;2023-06-22T10:34:12;98562.22;;;31.05;42.46
40850;BME280;26571;41.610;25.380;2023-06-22T10:36:38;98487.97;;;30.72;42.37
40850;BME280;26571;41.610;25.380;2023-06-22T10:39:04;98480.19;;;30.65;40.25
40850;BME280;26571;41.610;25.380;2023-06-22T10:41:29;98559.72;;;31.22;40.92
40850;BME280;26571;41.610;25.380;2023-06-22T10:43:56;98555.88;;;31.09;41.69
40850;BME280;26571;41.610;25.380;2023-06-22T10:46:24;98567.38;;;30.87;39.96
40850;BME280;26571;41.610;25.380;2023-06-22T10:48:50;98561.72;;;30.65;41.08
40850;BME280;26571;41.610;25.380;2023-06-22T10:51:15;98558.13;;;30.51;42.53
40850;BME280;26571;41.610;25.380;2023-06-22T10:53:41;98512.97;;;30.12;43.16
40850;BME280;26571;41.610;25.380;2023-06-22T10:56:06;98530.94;;;30.51;44.27
40850;BME280;26571;41.610;25.380;2023-06-22T10:58:31;98539.19;;;30.83;41.71
40850;BME280;26571;41.610;25.380;2023-06-22T11:00:57;98537.75;;;31.05;41.95
40850;BME280;26571;41.610;25.380;2023-06-22T11:03:24;98529.16;;;31.30;42.83
40850;BME280;26571;41.610;25.380;2023-06-22T11:05:49;98548.66;;;31.65;43.31
40850;BME280;26571;41.610;25.380;2023-06-22T11:08:15;98543.22;;;31.65;39.42
40850;BME280;26571;41.610;25.380;2023-06-22T11:10:40;98534.34;;;31.59;38.67
40850;BME280;26571;41.610;25.380;2023-06-22T11:13:06;98541.28;;;31.65;40.55
40850;BME280;26571;41.610;25.380;2023-06-22T11:15:34;98538.66;;;31.47;40.22
40850;BME280;26571;41.610;25.380;2023-06-22T11:18:00;98536.22;;;31.31;38.49
40850;BME280;26571;41.610;25.380;2023-06-22T11:20:25;98540.69;;;31.22;38.97
40850;BME280;26571;41.610;25.380;2023-06-22T11:22:51;98534.28;;;31.32;39.12
40850;BME280;26571;41.610;25.380;2023-06-22T11:25:16;98533.91;;;31.38;37.93
40850;BME280;26571;41.610;25.380;2023-06-22T11:27:41;98505.78;;;30.97;37.57
40850;BME280;26571;41.610;25.380;2023-06-22T11:30:07;98530.16;;;31.02;38.93
40850;BME280;26571;41.610;25.380;2023-06-22T11:32:34;98527.44;;;31.02;38.12
40850;BME280;26571;41.610;25.380;2023-06-22T11:34:59;98538.13;;;31.31;38.42
40850;BME280;26571;41.610;25.380;2023-06-22T11:37:24;98539.97;;;31.49;36.69
40850;BME280;26571;41.610;25.380;2023-06-22T11:39:50;98523.66;;;31.63;36.30
40850;BME280;26571;41.610;25.380;2023-06-22T11:42:16;98529.69;;;31.60;34.99
40850;BME280;26571;41.610;25.380;2023-06-22T11:44:42;98480.91;;;31.36;37.81
40850;BME280;26571;41.610;25.380;2023-06-22T11:47:07;98531.31;;;31.61;35.10
40850;BME280;26571;41.610;25.380;2023-06-22T11:49:33;98493.69;;;31.35;37.30
40850;BME280;26571;41.610;25.380;2023-06-22T11:51:58;98522.34;;;31.74;37.98
40850;BME280;26571;41.610;25.380;2023-06-22T11:54:24;98442.00;;;31.35;36.80
40850;BME280;26571;41.610;25.380;2023-06-22T11:56:49;98531.16;;;31.85;38.78
40850;BME280;26571;41.610;25.380;2023-06-22T11:59:14;98509.03;;;31.59;38.64
40850;BME280;26571;41.610;25.380;2023-06-22T12:01:40;98522.53;;;31.50;38.96
40850;BME280;26571;41.610;25.380;2023-06-22T12:04:05;98514.97;;;31.33;39.86
40850;BME280;26571;41.610;25.380;2023-06-22T12:06:35;98528.88;;;31.46;39.40
40850;BME280;26571;41.610;25.380;2023-06-22T12:09:03;98528.38;;;31.44;41.19
40850;BME280;26571;41.610;25.380;2023-06-22T12:11:30;98494.75;;;31.21;40.38
40850;BME280;26571;41.610;25.380;2023-06-22T12:13:55;98532.91;;;31.34;40.58
40850;BME280;26571;41.610;25.380;2023-06-22T12:16:21;98529.16;;;31.30;41.29
40850;BME280;26571;41.610;25.380;2023-06-22T12:18:47;98544.16;;;31.28;41.88
40850;BME280;26571;41.610;25.380;2023-06-22T12:21:12;98514.97;;;31.33;39.76
40850;BME280;26571;41.610;25.380;2023-06-22T12:23:38;98412.09;;;30.75;40.23
40850;BME280;26571;41.610;25.380;2023-06-22T12:26:03;98535.34;;;31.50;39.30
40850;BME280;26571;41.610;25.380;2023-06-22T12:28:29;98529.00;;;31.54;39.95
40850;BME280;26571;41.610;25.380;2023-06-22T12:30:54;98523.25;;;31.56;40.11
40850;BME280;26571;41.610;25.380;2023-06-22T12:33:19;98523.13;;;31.61;40.04
40850;BME280;26571;41.610;25.380;2023-06-22T12:35:45;98527.66;;;31.52;38.73
40850;BME280;26571;41.610;25.380;2023-06-22T12:38:10;98518.00;;;31.46;39.72
40850;BME280;26571;41.610;25.380;2023-06-22T12:40:36;98530.69;;;31.36;40.28
40850;BME280;26571;41.610;25.380;2023-06-22T12:43:01;98515.13;;;31.23;41.40
40850;BME280;26571;41.610;25.380;2023-06-22T12:45:27;98493.69;;;31.03;39.31
40850;BME280;26571;41.610;25.380;2023-06-22T12:47:54;98522.13;;;31.10;40.19
40850;BME280;26571;41.610;25.380;2023-06-22T12:50:19;98522.88;;;30.83;40.93
40850;BME280;26571;41.610;25.380;2023-06-22T12:52:45;98512.66;;;30.75;41.42
40850;BME280;26571;41.610;25.380;2023-06-22T12:55:10;98515.59;;;30.79;39.97